Time;durP1;ratioP1;P1;durP2;ratioP2;P2;SDS_P1;SDS_P2;PMS_P1;PMS_P2;Temp;Humidity;BMP_temperature;BMP_pressure;BME280_temperature;BME280_humidity;BME280_pressure;Samples;Min_cycle;Max_cycle;Signal;HPM_P1;HPM_P2
2021/12/03 00:00:00;;;;;;;7.43;3.20;;;3.10;99.90;;;;;;5050046;28;20454;-74
2021/12/03 00:02:26;;;;;;;4.07;2.97;;;3.10;99.90;;;;;;5046342;28;20462;-73
2021/12/03 00:04:52;;;;;;;4.37;3.03;;;3.10;99.90;;;;;;5050624;28;20481;-73
2021/12/03 00:07:18;;;;;;;3.63;3.13;;;3.10;99.90;;;;;;5033707;28;20684;-73
2021/12/03 00:09:43;;;;;;;3.83;2.97;;;3.10;99.90;;;;;;5051064;28;20231;-73
2021/12/03 00:12:10;;;;;;;5.87;3.57;;;3.10;99.90;;;;;;5050611;28;20465;-73
2021/12/03 00:14:35;;;;;;;5.83;4.53;;;3.20;99.90;;;;;;5050424;28;20216;-73
2021/12/03 00:17:02;;;;;;;6.00;3.80;;;3.20;99.90;;;;;;5044726;28;20470;-73
2021/12/03 00:19:28;;;;;;;5.30;3.33;;;3.20;99.90;;;;;;5050466;28;20224;-73
2021/12/03 00:21:54;;;;;;;5.67;3.90;;;3.10;99.90;;;;;;5049820;28;20546;-73
2021/12/03 00:24:20;;;;;;;4.50;3.67;;;3.10;99.90;;;;;;5051349;28;20250;-73
2021/12/03 00:26:45;;;;;;;4.50;3.10;;;3.00;99.90;;;;;;5052073;28;20239;-73
2021/12/03 00:29:11;;;;;;;6.50;4.77;;;3.00;99.90;;;;;;5050218;28;20743;-73
2021/12/03 00:31:37;;;;;;;5.30;4.27;;;2.90;99.90;;;;;;5050521;28;20234;-73
2021/12/03 00:34:02;;;;;;;8.37;4.80;;;2.90;99.90;;;;;;5050820;28;20303;-73
2021/12/03 00:36:28;;;;;;;6.27;3.90;;;2.90;99.90;;;;;;5049921;28;20235;-73
2021/12/03 00:38:58;;;;;;;4.70;4.07;;;2.90;99.90;;;;;;5050595;28;20246;-73
2021/12/03 00:41:29;;;;;;;8.00;4.33;;;3.00;99.90;;;;;;5042967;28;20458;-73
2021/12/03 00:43:55;;;;;;;5.87;3.90;;;3.00;99.90;;;;;;5050282;28;20555;-74
2021/12/03 00:46:22;;;;;;;5.40;4.03;;;3.00;99.90;;;;;;5032689;28;20466;-71
2021/12/03 00:48:50;;;;;;;7.97;4.90;;;3.00;99.90;;;;;;5042524;28;20227;-73
2021/12/03 00:51:19;;;;;;;9.30;5.70;;;3.10;99.90;;;;;;5033129;28;20461;-73
2021/12/03 00:53:45;;;;;;;9.27;6.07;;;3.10;99.90;;;;;;5049968;28;20450;-74
2021/12/03 00:56:12;;;;;;;8.40;4.87;;;3.10;99.90;;;;;;5032784;28;20934;-73
2021/12/03 00:58:38;;;;;;;8.40;4.83;;;3.20;99.90;;;;;;5033354;28;20532;-73
2021/12/03 01:01:05;;;;;;;8.97;5.43;;;3.20;99.90;;;;;;5049931;28;20461;-72
2021/12/03 01:03:32;;;;;;;8.23;5.17;;;3.20;99.90;;;;;;5032914;28;20439;-72
2021/12/03 01:05:57;;;;;;;8.90;5.23;;;3.20;99.90;;;;;;5050747;28;20466;-73
2021/12/03 01:08:23;;;;;;;6.20;5.17;;;3.20;99.90;;;;;;5049678;28;20509;-71
2021/12/03 01:10:50;;;;;;;7.47;4.80;;;3.20;99.90;;;;;;5049925;28;20216;-73
2021/12/03 01:13:15;;;;;;;6.43;3.90;;;3.20;99.90;;;;;;5050550;28;20211;-73
2021/12/03 01:15:42;;;;;;;4.37;3.43;;;3.20;99.90;;;;;;5032830;28;20811;-73
2021/12/03 01:18:09;;;;;;;5.00;3.90;;;3.20;99.90;;;;;;5049614;28;20220;-74
2021/12/03 01:20:36;;;;;;;5.10;4.30;;;3.20;99.90;;;;;;5028527;28;20451;-75
2021/12/03 01:23:04;;;;;;;9.10;4.27;;;3.20;99.90;;;;;;5049421;28;20458;-73
2021/12/03 01:25:31;;;;;;;7.00;4.50;;;3.20;99.90;;;;;;5032024;28;20946;-73
2021/12/03 01:27:59;;;;;;;5.27;4.00;;;3.20;99.90;;;;;;5049669;28;20454;-74
2021/12/03 01:30:27;;;;;;;8.37;5.47;;;3.20;99.90;;;;;;5048729;28;20865;-70
2021/12/03 01:32:53;;;;;;;10.33;5.00;;;3.20;99.90;;;;;;5049451;28;20932;-73
2021/12/03 01:35:19;;;;;;;7.77;4.87;;;3.20;99.90;;;;;;5050435;28;20459;-70
2021/12/03 01:37:46;;;;;;;6.00;4.23;;;3.20;99.90;;;;;;5032775;28;20298;-73
2021/12/03 01:40:16;;;;;;;6.50;4.23;;;3.20;99.90;;;;;;5048990;28;20585;-74
2021/12/03 01:42:44;;;;;;;7.17;5.00;;;3.20;99.90;;;;;;5048601;28;20450;-74
2021/12/03 01:45:13;;;;;;;5.70;4.20;;;3.20;99.90;;;;;;5047400;28;20481;-74
2021/12/03 01:47:41;;;;;;;6.93;4.00;;;3.20;99.90;;;;;;5049456;28;20454;-73
2021/12/03 01:50:07;;;;;;;5.27;3.93;;;3.10;99.90;;;;;;5050425;28;20451;-73
2021/12/03 01:52:33;;;;;;;5.13;4.43;;;3.10;99.90;;;;;;5032065;28;20826;-74
2021/12/03 01:55:00;;;;;;;3.77;3.10;;;3.10;99.90;;;;;;5049387;28;20458;-73
2021/12/03 01:57:26;;;;;;;7.00;4.50;;;3.10;99.90;;;;;;5026413;28;20266;-74
2021/12/03 01:59:51;;;;;;;10.93;4.00;;;3.10;99.90;;;;;;5029251;28;20451;-73
2021/12/03 02:02:17;;;;;;;5.83;3.43;;;3.10;99.90;;;;;;5045380;28;20538;-74
2021/12/03 02:04:43;;;;;;;3.57;3.10;;;3.10;99.90;;;;;;5045717;28;20687;-72
2021/12/03 02:07:08;;;;;;;5.73;4.00;;;3.10;99.90;;;;;;5042787;28;20250;-73
2021/12/03 02:09:34;;;;;;;4.83;3.53;;;3.00;99.90;;;;;;5049801;28;20273;-73
2021/12/03 02:12:00;;;;;;;5.83;3.60;;;2.90;99.90;;;;;;5049302;28;20226;-74
2021/12/03 02:14:26;;;;;;;4.73;3.30;;;2.90;99.90;;;;;;5033900;28;20299;-73
2021/12/03 02:16:51;;;;;;;5.67;3.33;;;2.80;99.90;;;;;;5012526;28;20225;-74
2021/12/03 02:19:18;;;;;;;8.90;4.30;;;2.70;99.90;;;;;;5028521;28;20247;-73
2021/12/03 02:21:44;;;;;;;2.60;2.40;;;2.70;99.90;;;;;;5039498;28;20223;-73
2021/12/03 02:24:10;;;;;;;5.73;2.80;;;2.60;99.90;;;;;;5048203;28;20519;-73
2021/12/03 02:26:36;;;;;;;3.33;2.60;;;2.60;99.90;;;;;;5048798;28;20459;-73
2021/12/03 02:29:02;;;;;;;4.07;2.80;;;2.50;99.90;;;;;;5048538;28;20238;-71
2021/12/03 02:31:28;;;;;;;3.90;2.80;;;2.50;99.90;;;;;;5031227;28;20219;-68
2021/12/03 02:33:54;;;;;;;4.80;2.80;;;2.50;99.90;;;;;;5048715;28;20515;-71
2021/12/03 02:36:20;;;;;;;4.60;2.93;;;2.40;99.90;;;;;;5049512;28;20255;-68
2021/12/03 02:38:46;;;;;;;12.03;2.60;;;2.30;99.90;;;;;;5048301;28;20478;-73
2021/12/03 02:41:12;;;;;;;4.87;3.10;;;2.30;99.90;;;;;;5050311;28;20218;-71
2021/12/03 02:43:39;;;;;;;3.83;2.63;;;2.30;99.90;;;;;;5035788;28;20227;-71
2021/12/03 02:46:04;;;;;;;3.07;2.17;;;2.20;99.90;;;;;;5052516;28;20470;-71
2021/12/03 02:48:31;;;;;;;3.77;2.00;;;2.20;99.90;;;;;;5026602;28;20455;-71
2021/12/03 02:50:59;;;;;;;3.67;2.10;;;2.10;99.90;;;;;;5052655;28;20230;-71
2021/12/03 02:53:24;;;;;;;3.43;2.30;;;2.10;99.90;;;;;;5018193;28;20508;-71
2021/12/03 02:55:51;;;;;;;3.50;2.27;;;2.10;99.90;;;;;;5035483;28;21009;-71
2021/12/03 02:58:18;;;;;;;3.03;2.57;;;2.10;99.90;;;;;;5051481;28;20216;-71
2021/12/03 03:00:44;;;;;;;3.83;2.50;;;2.10;99.90;;;;;;5035700;28;20462;-71
2021/12/03 03:03:10;;;;;;;3.90;2.00;;;2.10;99.90;;;;;;5051657;28;20450;-71
2021/12/03 03:05:35;;;;;;;4.97;2.33;;;2.10;99.90;;;;;;5052060;28;20469;-70
2021/12/03 03:08:01;;;;;;;6.10;2.60;;;2.10;99.90;;;;;;5047503;28;20220;-71
2021/12/03 03:10:31;;;;;;;2.73;2.30;;;2.20;99.90;;;;;;5052826;28;20587;-68
2021/12/03 03:12:58;;;;;;;4.97;2.50;;;2.20;99.90;;;;;;5052034;28;20219;-71
2021/12/03 03:15:24;;;;;;;2.37;1.73;;;2.10;99.90;;;;;;5052149;28;20480;-71
2021/12/03 03:17:50;;;;;;;2.90;1.93;;;2.10;99.90;;;;;;5035189;28;20476;-71
2021/12/03 03:20:17;;;;;;;4.07;2.40;;;2.10;99.90;;;;;;5034474;28;20474;-70
2021/12/03 03:22:44;;;;;;;3.93;1.73;;;2.10;99.90;;;;;;5050947;28;20220;-71
2021/12/03 03:25:13;;;;;;;2.40;1.90;;;2.10;99.90;;;;;;5051091;28;20516;-71
2021/12/03 03:27:40;;;;;;;3.03;2.17;;;2.10;99.90;;;;;;5053008;28;20462;-71
2021/12/03 03:30:11;;;;;;;2.30;1.80;;;2.10;99.90;;;;;;5052752;28;20463;-71
2021/12/03 03:32:38;;;;;;;3.47;2.30;;;2.10;99.90;;;;;;5051562;28;20446;-71
2021/12/03 03:35:04;;;;;;;2.90;2.40;;;2.10;99.90;;;;;;5051786;28;20466;-71
2021/12/03 03:37:30;;;;;;;1.97;1.60;;;2.00;99.90;;;;;;5034545;28;20454;-71
2021/12/03 03:39:55;;;;;;;3.00;2.23;;;2.10;99.90;;;;;;5052680;28;20470;-70
2021/12/03 03:42:21;;;;;;;2.27;1.70;;;2.00;99.90;;;;;;5034238;28;20273;-71
2021/12/03 03:44:47;;;;;;;5.53;2.20;;;2.00;99.90;;;;;;5052525;28;20231;-72
2021/12/03 03:47:13;;;;;;;3.53;2.20;;;1.90;99.90;;;;;;5050551;28;20226;-71
2021/12/03 03:49:39;;;;;;;2.30;2.00;;;1.90;99.90;;;;;;5034399;28;20215;-72
2021/12/03 03:52:06;;;;;;;3.00;2.60;;;1.90;99.90;;;;;;5031113;28;20874;-73
2021/12/03 03:54:32;;;;;;;4.70;2.30;;;1.80;99.90;;;;;;5049926;28;20961;-71
2021/12/03 03:56:58;;;;;;;3.73;2.33;;;1.80;99.90;;;;;;5051394;28;20473;-72
2021/12/03 03:59:25;;;;;;;5.37;2.37;;;1.80;99.90;;;;;;5050651;28;20458;-71
2021/12/03 04:01:52;;;;;;;3.93;2.47;;;1.90;99.90;;;;;;5050780;28;20458;-71
2021/12/03 04:04:18;;;;;;;2.80;2.23;;;1.90;99.90;;;;;;5050360;28;20502;-69
2021/12/03 04:06:44;;;;;;;3.37;2.00;;;1.90;99.90;;;;;;5046117;28;20446;-71
2021/12/03 04:09:11;;;;;;;4.00;2.07;;;1.90;99.90;;;;;;5049519;28;20454;-70
2021/12/03 04:11:37;;;;;;;3.33;2.37;;;2.00;99.90;;;;;;5048575;28;20458;-71
2021/12/03 04:14:04;;;;;;;3.03;2.70;;;1.90;99.90;;;;;;5049096;28;20474;-71
2021/12/03 04:16:31;;;;;;;8.03;2.60;;;1.90;99.90;;;;;;5048317;28;20538;-71
2021/12/03 04:18:58;;;;;;;3.20;2.40;;;1.90;99.90;;;;;;5049116;28;20458;-72
2021/12/03 04:21:25;;;;;;;3.20;2.67;;;1.80;99.90;;;;;;5048346;28;20470;-71
2021/12/03 04:23:52;;;;;;;3.67;2.23;;;1.80;99.90;;;;;;5048240;28;20454;-72
2021/12/03 04:26:18;;;;;;;3.73;2.10;;;1.80;99.90;;;;;;5044218;28;20837;-71
2021/12/03 04:28:44;;;;;;;3.47;2.70;;;1.90;99.90;;;;;;5050142;28;20442;-72
2021/12/03 04:31:10;;;;;;;4.70;2.93;;;1.90;99.90;;;;;;5031434;28;20286;-71
2021/12/03 04:33:35;;;;;;;3.20;2.07;;;2.00;99.90;;;;;;5048302;28;20480;-71
2021/12/03 04:36:01;;;;;;;5.20;2.97;;;2.00;99.90;;;;;;5031868;28;20224;-72
2021/12/03 04:38:27;;;;;;;3.83;2.43;;;2.00;99.90;;;;;;5048111;28;20216;-71
2021/12/03 04:40:52;;;;;;;6.17;2.37;;;2.10;99.90;;;;;;5048197;28;20222;-70
2021/12/03 04:43:18;;;;;;;3.00;2.70;;;2.10;99.90;;;;;;5048910;28;20226;-70
2021/12/03 04:45:44;;;;;;;4.67;2.70;;;2.00;99.90;;;;;;5046532;28;20228;-70
2021/12/03 04:48:10;;;;;;;3.80;2.40;;;1.90;99.90;;;;;;5049417;28;20223;-71
2021/12/03 04:50:41;;;;;;;4.50;2.73;;;1.80;99.90;;;;;;5048473;28;20456;-72
2021/12/03 04:53:09;;;;;;;2.80;2.10;;;1.70;99.90;;;;;;5031820;28;20265;-71
2021/12/03 04:55:36;;;;;;;9.47;3.30;;;1.70;99.90;;;;;;5031058;28;20462;-71
2021/12/03 04:58:03;;;;;;;4.27;2.57;;;1.80;99.90;;;;;;5048418;28;20454;-71
2021/12/03 05:00:53;;;;;;;3.37;2.47;;;1.80;99.90;;;;;;5047914;28;20490;-69
2021/12/03 05:03:21;;;;;;;4.70;2.60;;;1.80;99.90;;;;;;5042998;28;20451;-71
2021/12/03 05:05:54;;;;;;;3.93;2.20;;;1.80;99.90;;;;;;5027863;28;20475;-71
2021/12/03 05:08:20;;;;;;;3.53;2.87;;;1.70;99.90;;;;;;5027288;28;20534;-71
2021/12/03 05:10:46;;;;;;;3.57;2.20;;;1.60;99.90;;;;;;5047313;28;20504;-71
2021/12/03 05:13:21;;;;;;;8.10;2.47;;;1.60;99.90;;;;;;5047162;28;20450;-71
2021/12/03 05:15:47;;;;;;;2.90;2.10;;;1.50;99.90;;;;;;5031080;28;20476;-71
2021/12/03 05:18:16;;;;;;;3.90;2.33;;;1.50;99.90;;;;;;5046724;28;20489;-73
2021/12/03 05:20:42;;;;;;;3.53;2.50;;;1.50;99.90;;;;;;5048835;28;20841;-73
2021/12/03 05:23:09;;;;;;;4.00;2.80;;;1.50;99.90;;;;;;5045347;28;20447;-73
2021/12/03 05:25:35;;;;;;;4.33;2.40;;;1.50;99.90;;;;;;5030435;28;21052;-73
2021/12/03 05:28:02;;;;;;;3.00;2.53;;;1.40;99.90;;;;;;5047740;28;20516;-73
2021/12/03 05:30:28;;;;;;;4.00;2.30;;;1.50;99.90;;;;;;5030435;28;21049;-69
2021/12/03 05:32:54;;;;;;;10.20;2.47;;;1.50;99.90;;;;;;5030310;28;20469;-72
2021/12/03 05:35:21;;;;;;;8.93;2.60;;;1.50;99.90;;;;;;5048307;28;20463;-71
2021/12/03 05:37:47;;;;;;;6.43;2.57;;;1.50;99.90;;;;;;5048519;28;20446;-73
2021/12/03 05:40:14;;;;;;;5.47;2.93;;;1.50;99.90;;;;;;5026957;28;21017;-73
2021/12/03 05:42:40;;;;;;;4.93;2.80;;;1.50;99.90;;;;;;5047269;28;20307;-73
2021/12/03 05:45:08;;;;;;;9.30;2.47;;;1.60;99.90;;;;;;5030495;28;20534;-72
2021/12/03 05:47:34;;;;;;;4.20;2.77;;;1.60;99.90;;;;;;5051206;28;20222;-73
2021/12/03 05:49:59;;;;;;;8.70;2.83;;;1.60;99.90;;;;;;5026976;28;20443;-73
2021/12/03 05:52:25;;;;;;;3.83;2.80;;;1.60;99.90;;;;;;5029663;28;20227;-73
2021/12/03 05:54:51;;;;;;;3.67;2.13;;;1.60;99.90;;;;;;5046580;28;20254;-73
2021/12/03 05:57:17;;;;;;;3.10;2.10;;;1.60;99.90;;;;;;5046933;28;20684;-73
2021/12/03 05:59:43;;;;;;;3.63;2.50;;;1.60;99.90;;;;;;5030961;28;20443;-73
2021/12/03 06:02:09;;;;;;;2.87;2.17;;;1.60;99.90;;;;;;5047930;28;20457;-74
2021/12/03 06:04:35;;;;;;;4.20;2.77;;;1.60;99.90;;;;;;5029437;28;20243;-73
2021/12/03 06:07:01;;;;;;;3.70;2.43;;;1.60;99.90;;;;;;5047079;28;20220;-69
2021/12/03 06:09:26;;;;;;;5.43;2.90;;;1.60;99.90;;;;;;5047347;28;20485;-69
2021/12/03 06:11:52;;;;;;;6.43;2.60;;;1.60;99.90;;;;;;5048477;28;20215;-70
2021/12/03 06:14:18;;;;;;;2.97;2.40;;;1.60;99.90;;;;;;5046197;28;20254;-71
2021/12/03 06:16:44;;;;;;;3.73;2.60;;;1.60;99.90;;;;;;5051289;28;20216;-69
2021/12/03 06:19:10;;;;;;;4.07;2.90;;;1.70;99.90;;;;;;5047696;28;20349;-70
2021/12/03 06:21:35;;;;;;;6.03;3.20;;;1.70;99.90;;;;;;5050680;28;20819;-70
2021/12/03 06:24:01;;;;;;;7.50;3.43;;;1.80;99.90;;;;;;5049252;28;20446;-70
2021/12/03 06:26:27;;;;;;;4.80;2.90;;;1.80;99.90;;;;;;5033190;28;20275;-70
2021/12/03 06:28:53;;;;;;;3.10;2.50;;;1.80;99.90;;;;;;5046294;28;20689;-71
2021/12/03 06:31:19;;;;;;;6.43;3.17;;;1.80;99.90;;;;;;5048752;28;20239;-70
2021/12/03 06:33:45;;;;;;;6.30;3.07;;;1.80;99.90;;;;;;5029197;28;20563;-71
2021/12/03 06:36:10;;;;;;;8.03;3.40;;;1.70;99.90;;;;;;5046206;28;20250;-71
2021/12/03 06:38:38;;;;;;;6.40;2.37;;;1.70;99.90;;;;;;5049155;28;20230;-71
2021/12/03 06:41:05;;;;;;;3.80;2.43;;;1.70;99.90;;;;;;5047866;28;20222;-71
2021/12/03 06:43:31;;;;;;;5.70;3.03;;;1.70;99.90;;;;;;5029166;28;20523;-70
2021/12/03 06:45:57;;;;;;;3.63;2.27;;;1.70;99.90;;;;;;5048621;28;20458;-71
2021/12/03 06:48:23;;;;;;;9.70;3.10;;;1.70;99.90;;;;;;5031228;28;20591;-71
2021/12/03 06:50:51;;;;;;;3.77;2.83;;;1.70;99.90;;;;;;5048490;28;20333;-72
2021/12/03 06:53:20;;;;;;;4.87;3.23;;;1.60;99.90;;;;;;5046785;28;20464;-70
2021/12/03 06:55:48;;;;;;;5.07;3.20;;;1.60;99.90;;;;;;5048316;28;20515;-70
2021/12/03 06:58:18;;;;;;;5.43;3.07;;;1.60;99.90;;;;;;5030145;28;20458;-71
2021/12/03 07:00:50;;;;;;;7.47;3.60;;;1.60;99.90;;;;;;5031103;28;20457;-71
2021/12/03 07:03:16;;;;;;;6.70;2.33;;;1.60;99.90;;;;;;5046982;28;20454;-72
2021/12/03 07:05:42;;;;;;;5.57;3.23;;;1.60;99.90;;;;;;5047493;28;21092;-73
2021/12/03 07:08:08;;;;;;;5.60;3.03;;;1.60;99.90;;;;;;5047179;28;20219;-72
2021/12/03 07:10:35;;;;;;;16.87;2.70;;;1.60;99.90;;;;;;5047290;28;20461;-72
2021/12/03 07:13:01;;;;;;;5.07;3.40;;;1.60;99.90;;;;;;5031247;28;20219;-72
2021/12/03 07:15:27;;;;;;;4.87;2.17;;;1.60;99.90;;;;;;5045716;28;20469;-72
2021/12/03 07:17:52;;;;;;;2.83;2.60;;;1.60;99.90;;;;;;5049318;28;20838;-74
2021/12/03 07:20:20;;;;;;;4.93;3.17;;;1.60;99.90;;;;;;5047752;28;20226;-73
2021/12/03 07:22:46;;;;;;;5.70;3.30;;;1.50;99.90;;;;;;5027453;28;20223;-72
2021/12/03 07:25:13;;;;;;;5.80;2.97;;;1.50;99.90;;;;;;5029592;28;20474;-70
2021/12/03 07:27:40;;;;;;;5.07;3.33;;;1.50;99.90;;;;;;5046451;28;20529;-71
2021/12/03 07:30:07;;;;;;;3.57;2.50;;;1.50;99.90;;;;;;5031459;28;20454;-71
2021/12/03 07:32:33;;;;;;;4.70;2.90;;;1.50;99.90;;;;;;5050673;28;20878;-71
2021/12/03 07:34:59;;;;;;;5.80;3.13;;;1.40;99.90;;;;;;5034939;28;20496;-71
2021/12/03 07:37:24;;;;;;;5.70;2.93;;;1.40;99.90;;;;;;5051029;28;20224;-69
2021/12/03 07:39:50;;;;;;;7.33;3.80;;;1.40;99.90;;;;;;5052933;28;20553;-70
2021/12/03 07:42:16;;;;;;;5.03;3.50;;;1.40;99.90;;;;;;5050564;28;20306;-70
2021/12/03 07:44:42;;;;;;;7.10;3.60;;;1.40;99.90;;;;;;5051137;28;20558;-70
2021/12/03 07:47:08;;;;;;;5.37;3.13;;;1.40;99.90;;;;;;5050286;28;20235;-71
2021/12/03 07:49:35;;;;;;;7.10;4.77;;;1.40;99.90;;;;;;5050557;28;20447;-70
2021/12/03 07:52:01;;;;;;;5.00;3.87;;;1.40;99.90;;;;;;5050969;28;20450;-70
2021/12/03 07:54:27;;;;;;;3.93;3.10;;;1.30;99.90;;;;;;5051588;28;20484;-71
2021/12/03 07:56:53;;;;;;;4.40;2.87;;;1.30;99.90;;;;;;5032543;28;20215;-70
2021/12/03 07:59:18;;;;;;;12.73;4.50;;;1.30;99.90;;;;;;5031808;28;20675;-70
2021/12/03 08:01:46;;;;;;;3.97;3.10;;;1.20;99.90;;;;;;5034216;28;20308;-71
2021/12/03 08:04:13;;;;;;;5.87;3.37;;;1.20;99.90;;;;;;5049519;28;20235;-70
2021/12/03 08:06:40;;;;;;;6.40;3.33;;;1.20;99.90;;;;;;5049493;28;20450;-71
2021/12/03 08:09:07;;;;;;;4.97;3.70;;;1.30;99.90;;;;;;5051150;28;20508;-70
2021/12/03 08:11:33;;;;;;;5.00;3.23;;;1.30;99.90;;;;;;5040224;28;20472;-71
2021/12/03 08:13:59;;;;;;;4.60;2.90;;;1.30;99.90;;;;;;5048836;28;20450;-71
2021/12/03 08:16:25;;;;;;;6.17;4.00;;;1.30;99.90;;;;;;5047664;28;20465;-71
2021/12/03 08:18:51;;;;;;;4.90;3.60;;;1.30;99.90;;;;;;5049347;28;20458;-70
2021/12/03 08:21:17;;;;;;;8.10;3.50;;;1.40;99.90;;;;;;5030617;28;20258;-71
2021/12/03 08:23:42;;;;;;;4.53;3.17;;;1.40;99.90;;;;;;5047658;28;20269;-71
2021/12/03 08:26:08;;;;;;;5.73;3.93;;;1.40;99.90;;;;;;5047684;28;20235;-69
2021/12/03 08:28:34;;;;;;;7.00;3.87;;;1.50;99.90;;;;;;5046197;28;20227;-71
2021/12/03 08:31:00;;;;;;;6.50;3.37;;;1.50;99.90;;;;;;5047670;28;20234;-71
2021/12/03 08:33:26;;;;;;;6.37;3.67;;;1.50;99.90;;;;;;5046699;28;20546;-71
2021/12/03 08:35:52;;;;;;;6.20;3.83;;;1.50;99.90;;;;;;5047770;28;20549;-71
2021/12/03 08:38:18;;;;;;;7.83;3.90;;;1.50;99.90;;;;;;5044047;28;20315;-71
2021/12/03 08:40:44;;;;;;;8.53;4.10;;;1.50;99.90;;;;;;5027100;28;20220;-70
2021/12/03 08:43:09;;;;;;;5.97;4.23;;;1.50;99.90;;;;;;5054429;28;20269;-72
2021/12/03 08:45:37;;;;;;;7.43;3.97;;;1.50;99.90;;;;;;5041540;28;20224;-70
2021/12/03 08:48:04;;;;;;;16.03;8.77;;;1.50;99.90;;;;;;5028794;28;20219;-71
2021/12/03 08:51:06;;;;;;;30.33;12.43;;;1.50;99.90;;;;;;5046839;28;20486;-70
2021/12/03 08:56:02;;;;;;;111.80;47.17;;;1.60;99.90;;;;;;5047608;28;20624;-71
2021/12/03 08:58:27;;;;;;;54.37;27.07;;;1.70;99.90;;;;;;5029400;28;20598;-71
2021/12/03 09:00:54;;;;;;;58.07;29.20;;;1.60;99.90;;;;;;5045131;28;20230;-70
2021/12/03 09:03:19;;;;;;;44.27;26.37;;;1.60;99.90;;;;;;5029270;28;20219;-70
2021/12/03 09:05:47;;;;;;;28.87;16.27;;;1.70;99.90;;;;;;5046159;28;20924;-71
2021/12/03 09:08:13;;;;;;;13.90;10.33;;;1.70;99.90;;;;;;5040370;28;20216;-71
2021/12/03 09:10:40;;;;;;;7.90;5.43;;;1.70;99.90;;;;;;5047745;28;20462;-72
2021/12/03 09:13:06;;;;;;;14.73;5.37;;;1.70;99.90;;;;;;5047445;28;20227;-70
2021/12/03 09:15:38;;;;;;;8.07;7.27;;;1.70;99.90;;;;;;5047161;28;20521;-71
2021/12/03 09:21:10;;;;;;;12.70;8.43;;;1.70;99.90;;;;;;5047981;28;20463;-70
2021/12/03 09:26:10;;;;;;;149.87;54.97;;;1.80;99.90;;;;;;5049199;28;20628;-70
2021/12/03 09:28:38;;;;;;;90.90;39.90;;;1.80;99.90;;;;;;5047010;28;20830;-69
2021/12/03 09:31:05;;;;;;;95.37;34.67;;;1.80;99.90;;;;;;5042148;28;20463;-71
2021/12/03 09:33:33;;;;;;;56.50;25.27;;;1.90;99.90;;;;;;5044670;28;20500;-70
2021/12/03 09:36:02;;;;;;;31.70;15.77;;;1.90;99.90;;;;;;5049336;28;20462;-71
2021/12/03 09:38:32;;;;;;;18.27;7.80;;;1.90;99.90;;;;;;5043899;28;20471;-70
2021/12/03 09:41:22;;;;;;;10.10;6.37;;;1.90;99.90;;;;;;5045678;28;21053;-71
2021/12/03 09:43:51;;;;;;;8.57;5.67;;;2.00;99.90;;;;;;5028669;28;20450;-71
2021/12/03 09:46:29;;;;;;;6.30;3.83;;;2.00;99.90;;;;;;5044822;28;20466;-72
2021/12/03 09:51:30;;;;;;;9.00;4.20;;;2.00;99.90;;;;;;5045669;28;20505;-70
2021/12/03 09:56:41;;;;;;;5.73;3.47;;;2.00;99.90;;;;;;5046430;28;20462;-71
2021/12/03 10:13:07;;;;;;;16.30;9.80;;;2.10;99.90;;;;;;5044362;28;20458;-71
2021/12/03 10:15:37;;;;;;;13.90;9.30;;;2.00;99.90;;;;;;5043219;28;20462;-70
2021/12/03 10:18:30;;;;;;;20.97;8.70;;;2.00;99.90;;;;;;5045551;28;20822;-70
2021/12/03 10:21:01;;;;;;;15.37;6.87;;;2.00;99.90;;;;;;5044773;28;20470;-70
2021/12/03 10:24:05;;;;;;;9.70;5.63;;;2.00;99.90;;;;;;5041646;28;20494;-70
2021/12/03 10:32:20;;;;;;;5.00;3.00;;;2.20;99.90;;;;;;5046704;28;20519;-67
2021/12/03 10:54:33;;;;;;;7.23;4.17;;;2.30;99.90;;;;;;5046313;28;20466;-71
2021/12/03 11:07:39;;;;;;;6.60;3.10;;;2.40;99.90;;;;;;5049045;28;20508;-70
2021/12/03 11:14:33;;;;;;;7.63;4.37;;;2.50;99.90;;;;;;5050061;28;20457;-70
2021/12/03 11:30:10;;;;;;;4.20;2.73;;;2.70;99.90;;;;;;5049880;28;20457;-70
2021/12/03 11:55:56;;;;;;;4.40;3.43;;;2.70;99.90;;;;;;5046008;28;20447;-72
2021/12/03 13:10:43;;;;;;;;;;;;;;;;;;;;;
2021/12/03 13:30:13;;;;;;;9.93;6.47;;;2.60;99.90;;;;;;5028084;28;20463;-71
2021/12/03 14:41:38;;;;;;;6.03;4.13;;;2.70;99.90;;;;;;5050453;28;20549;-70
2021/12/03 14:44:31;;;;;;;5.83;4.20;;;2.70;99.90;;;;;;5065244;28;20219;-70
2021/12/03 14:52:44;;;;;;;4.87;3.87;;;2.70;99.90;;;;;;5046903;28;20509;-69
2021/12/03 14:55:10;;;;;;;4.77;3.70;;;2.70;99.90;;;;;;5049029;28;20461;-70
2021/12/03 15:03:05;;;;;;;;;;;;;;;;;;;;;
2021/12/03 15:05:42;;;;;;;3.63;3.23;;;2.60;99.90;;;;;;5046401;28;20481;-71
2021/12/03 15:08:11;;;;;;;14.50;3.90;;;2.60;99.90;;;;;;5049257;28;20462;-71
2021/12/03 15:11:34;;;;;;;6.00;3.80;;;2.70;99.90;;;;;;5048683;28;20443;-70
2021/12/03 15:32:30;;;;;;;5.23;3.80;;;2.70;99.90;;;;;;5047589;28;20484;-69
2021/12/03 15:37:49;;;;;;;4.17;3.47;;;2.70;99.90;;;;;;5047953;28;20463;-69
2021/12/03 16:04:37;;;;;;;3.10;2.57;;;2.70;99.90;;;;;;5045081;28;20497;-72
2021/12/03 16:13:16;;;;;;;4.23;2.83;;;2.70;99.90;;;;;;5013946;28;20497;-72
2021/12/03 16:24:35;;;;;;;;;;;;;;;;;;;;;
2021/12/03 16:53:48;;;;;;;12.73;7.40;;;2.70;99.90;;;;;;5029636;28;20538;-72
2021/12/03 16:56:18;;;;;;;12.87;8.27;;;2.70;99.90;;;;;;5013241;28;20455;-72
2021/12/03 16:58:44;;;;;;;9.07;6.13;;;2.70;99.90;;;;;;5012612;28;20448;-71
2021/12/03 17:01:19;;;;;;;5.57;3.40;;;2.70;99.90;;;;;;5028865;28;20454;-72
2021/12/03 17:03:55;;;;;;;;;;;;;;;;;;;;;
2021/12/03 17:11:37;;;;;;;3.43;2.30;;;2.70;99.90;;;;;;5039244;28;20475;-72
2021/12/03 17:17:08;;;;;;;3.03;2.73;;;2.70;99.90;;;;;;5048833;28;20531;-72
2021/12/03 17:47:12;;;;;;;3.43;2.20;;;2.70;99.90;;;;;;5041111;28;20458;-72
2021/12/03 17:49:50;;;;;;;6.53;2.63;;;2.70;99.90;;;;;;5049900;28;20451;-72
2021/12/03 17:59:52;;;;;;;2.80;2.20;;;2.70;99.90;;;;;;5050608;28;20438;-73
2021/12/03 18:05:03;;;;;;;2.90;2.40;;;2.70;99.90;;;;;;5048602;28;20548;-71
2021/12/03 18:07:41;;;;;;;4.20;2.50;;;2.70;99.90;;;;;;5048450;28;20519;-72
2021/12/03 18:53:21;;;;;;;7.57;2.97;;;2.70;99.90;;;;;;5048467;28;20457;-69
2021/12/03 18:55:51;;;;;;;3.20;2.73;;;2.70;99.90;;;;;;5048485;28;21165;-71
2021/12/03 18:58:18;;;;;;;5.70;2.97;;;2.70;99.90;;;;;;5048230;28;20454;-70
2021/12/03 19:00:46;;;;;;;10.30;3.27;;;2.70;99.90;;;;;;5049863;28;20987;-70
2021/12/03 19:03:30;;;;;;;;;;;;;;;;;;;;;
2021/12/03 19:06:00;;;;;;;6.47;3.20;;;2.70;99.90;;;;;;5049599;28;20470;-71
2021/12/03 19:08:49;;;;;;;2.80;2.57;;;2.70;99.90;;;;;;5049824;28;20450;-70
2021/12/03 19:11:23;;;;;;;3.93;2.67;;;2.70;99.90;;;;;;5047800;28;20454;-70
2021/12/03 19:13:50;;;;;;;3.37;2.40;;;2.70;99.90;;;;;;5045324;28;20593;-71
2021/12/03 19:16:17;;;;;;;2.50;2.03;;;2.70;99.90;;;;;;5040903;28;20458;-70
2021/12/03 19:18:48;;;;;;;4.40;2.70;;;2.70;99.90;;;;;;5036749;28;20451;-70
2021/12/03 19:21:22;;;;;;;3.40;2.77;;;2.70;99.90;;;;;;5038451;28;20458;-72
2021/12/03 19:23:50;;;;;;;3.57;2.53;;;2.70;99.90;;;;;;5043179;28;20888;-70
2021/12/03 19:26:18;;;;;;;3.67;2.87;;;2.70;99.90;;;;;;5046591;28;20462;-69
2021/12/03 19:28:44;;;;;;;5.57;3.10;;;2.70;99.90;;;;;;5041210;28;20454;-70
2021/12/03 19:31:10;;;;;;;3.90;3.03;;;2.70;99.90;;;;;;5049168;28;20546;-69
2021/12/03 19:33:36;;;;;;;3.10;2.70;;;2.70;99.90;;;;;;5034094;28;20220;-69
2021/12/03 19:36:04;;;;;;;2.73;2.37;;;2.70;99.90;;;;;;5034440;28;20296;-70
2021/12/03 19:38:30;;;;;;;4.80;3.73;;;2.70;99.90;;;;;;5050922;28;20478;-69
2021/12/03 19:40:59;;;;;;;6.23;3.10;;;2.70;99.90;;;;;;5052816;28;20450;-70
2021/12/03 19:43:30;;;;;;;4.77;3.20;;;2.80;99.90;;;;;;5034776;28;20458;-70
2021/12/03 19:46:02;;;;;;;2.70;2.50;;;2.80;99.90;;;;;;5034548;28;20470;-69
2021/12/03 19:48:52;;;;;;;3.73;2.50;;;2.80;99.90;;;;;;5050998;28;20584;-72
2021/12/03 19:51:16;;;;;;;2.87;2.40;;;2.80;99.90;;;;;;5041412;28;20505;-70
2021/12/03 19:53:55;;;;;;;3.03;2.33;;;2.80;99.90;;;;;;5061429;28;21040;-69
2021/12/03 19:56:23;;;;;;;3.00;2.20;;;2.80;99.90;;;;;;5035925;28;20536;-70
2021/12/03 19:58:49;;;;;;;3.43;2.90;;;2.80;99.90;;;;;;5046892;28;20543;-70
2021/12/03 20:01:15;;;;;;;3.63;2.20;;;2.80;99.90;;;;;;5030302;28;20523;-70
2021/12/03 20:03:41;;;;;;;6.07;3.17;;;2.80;99.90;;;;;;5040088;28;20455;-70
2021/12/03 20:06:07;;;;;;;3.37;2.60;;;2.90;99.90;;;;;;5057034;28;20560;-71
2021/12/03 20:08:34;;;;;;;2.60;2.40;;;2.90;99.90;;;;;;5042723;28;20226;-71
2021/12/03 20:11:04;;;;;;;4.53;2.80;;;2.90;99.90;;;;;;5060068;28;20213;-70
2021/12/03 20:13:30;;;;;;;4.67;2.57;;;2.80;99.90;;;;;;5025594;28;20446;-71
2021/12/03 20:16:13;;;;;;;3.27;2.87;;;2.80;99.90;;;;;;5042876;28;20470;-71
2021/12/03 20:18:50;;;;;;;3.60;2.93;;;2.90;99.90;;;;;;5043118;28;20227;-72
2021/12/03 20:21:17;;;;;;;2.80;2.60;;;2.90;99.90;;;;;;5051103;28;20458;-71
2021/12/03 20:31:41;;;;;;;4.83;3.07;;;2.90;99.90;;;;;;5050389;28;20454;-68
2021/12/03 20:34:25;;;;;;;4.10;2.97;;;2.90;99.90;;;;;;5032635;28;20220;-70
2021/12/03 20:36:54;;;;;;;3.87;2.80;;;2.90;99.90;;;;;;5032926;28;20458;-70
2021/12/03 20:39:32;;;;;;;4.37;2.50;;;2.90;99.90;;;;;;5033318;28;20489;-70
2021/12/03 20:42:08;;;;;;;3.37;2.77;;;3.00;99.90;;;;;;5050508;28;20996;-70